Terminal Aerodrome Forecast
Issued by NWS Jackson, KY

Home | Current Version | Previous Version | Text Only | Print | Product List | Glossary On
Versions: 1 2 3 4 5 6 7 8 9 10 11 12
732
FTUS43 KJKL 210530
TAFLOZ
TAF
KLOZ 210530Z 2106/2206 00000KT P6SM FEW090 FEW250
      TEMPO 2109/2113 3SM BR
     FM211600 26006KT P6SM FEW060=

USA.gov is the U.S. government's official web portal to all federal, state and local government web resources and services.